Time;durP1;ratioP1;P1;durP2;ratioP2;P2;SDS_P1;SDS_P2;PMS_P1;PMS_P2;Temp;Humidity;BMP_temperature;BMP_pressure;BME280_temperature;BME280_humidity;BME280_pressure;Samples;Min_cycle;Max_cycle;Signal;HPM_P1;HPM_P2
2024/03/22 00:02:10;;;;;;;20.63;13.73;;;16.30;80.80;;;;;;4152678;28;20438;-55
2024/03/22 00:04:51;;;;;;;20.13;14.73;;;16.20;80.70;;;;;;4168512;28;20510;-52
2024/03/22 00:07:30;;;;;;;17.02;13.60;;;16.20;81.00;;;;;;4163397;28;20610;-52
2024/03/22 00:10:11;;;;;;;20.73;14.73;;;16.20;81.00;;;;;;4152344;28;20067;-52
2024/03/22 00:12:50;;;;;;;19.63;14.85;;;16.20;80.80;;;;;;4153242;28;20096;-54
2024/03/22 00:15:30;;;;;;;18.10;14.00;;;16.20;80.60;;;;;;4167116;28;20048;-54
2024/03/22 00:18:11;;;;;;;18.50;14.13;;;16.20;80.60;;;;;;4167886;28;20107;-51
2024/03/22 00:20:51;;;;;;;19.50;14.70;;;16.20;80.50;;;;;;4172151;28;20052;-52
2024/03/22 00:23:30;;;;;;;20.17;15.02;;;16.20;80.80;;;;;;4159024;28;20056;-52
2024/03/22 00:26:10;;;;;;;21.55;15.80;;;16.20;80.80;;;;;;4171670;28;20102;-51
2024/03/22 00:28:49;;;;;;;21.83;15.45;;;16.20;80.80;;;;;;4158981;28;20137;-50
2024/03/22 00:31:29;;;;;;;21.10;14.57;;;16.20;81.10;;;;;;4167421;28;20051;-53
2024/03/22 00:34:09;;;;;;;20.40;15.60;;;16.20;81.20;;;;;;4166529;28;20404;-51
2024/03/22 00:36:51;;;;;;;20.13;15.38;;;16.20;81.20;;;;;;4172511;28;20178;-50
2024/03/22 00:39:30;;;;;;;21.25;15.43;;;16.10;81.10;;;;;;4171649;28;20565;-55
2024/03/22 00:42:10;;;;;;;23.95;16.23;;;16.20;81.30;;;;;;4172274;28;20055;-52
2024/03/22 00:44:48;;;;;;;24.30;16.77;;;16.10;81.40;;;;;;4171239;28;20060;-52
2024/03/22 00:47:28;;;;;;;22.55;16.15;;;16.10;81.40;;;;;;4169164;28;20056;-54
2024/03/22 00:50:09;;;;;;;24.30;16.95;;;16.10;81.20;;;;;;4156740;28;20108;-54
2024/03/22 00:52:51;;;;;;;21.27;16.05;;;16.10;81.50;;;;;;4164239;28;20091;-49
2024/03/22 00:55:30;;;;;;;23.95;17.58;;;16.10;81.40;;;;;;4155179;28;20052;-56
2024/03/22 00:58:11;;;;;;;26.02;17.90;;;16.10;81.30;;;;;;4156199;28;20507;-54
2024/03/22 01:00:50;;;;;;;22.75;16.73;;;16.10;81.10;;;;;;4155454;28;20100;-51
2024/03/22 01:03:29;;;;;;;25.63;17.85;;;16.10;81.20;;;;;;4166973;28;20404;-55
2024/03/22 01:06:10;;;;;;;24.00;17.17;;;16.10;82.30;;;;;;4168315;28;20060;-53
2024/03/22 01:08:50;;;;;;;26.80;17.80;;;16.10;81.40;;;;;;4155532;28;20060;-55
2024/03/22 01:11:29;;;;;;;26.25;18.63;;;16.10;81.70;;;;;;4155640;28;20056;-54
2024/03/22 01:14:09;;;;;;;28.08;20.02;;;16.10;81.90;;;;;;4154251;28;20060;-51
2024/03/22 01:16:48;;;;;;;27.45;19.52;;;16.10;81.80;;;;;;4156780;28;20148;-51
2024/03/22 01:19:28;;;;;;;29.75;18.23;;;16.00;81.90;;;;;;4163713;28;20095;-51
2024/03/22 01:22:08;;;;;;;30.88;20.52;;;16.10;81.90;;;;;;4155804;28;20064;-51
2024/03/22 01:24:49;;;;;;;26.30;18.97;;;16.00;81.90;;;;;;4155791;28;20087;-50
2024/03/22 01:27:28;;;;;;;26.60;18.67;;;16.00;82.00;;;;;;4171205;28;20291;-51
2024/03/22 01:30:08;;;;;;;26.67;19.17;;;16.00;82.00;;;;;;4169917;28;20167;-52
2024/03/22 01:32:48;;;;;;;28.37;18.70;;;16.00;82.00;;;;;;4162312;28;20056;-51
2024/03/22 01:35:28;;;;;;;29.65;21.35;;;16.00;82.00;;;;;;4150278;28;20324;-54
2024/03/22 01:38:09;;;;;;;30.08;21.23;;;16.00;82.20;;;;;;4169359;28;20048;-43
2024/03/22 01:40:50;;;;;;;32.92;21.08;;;16.00;82.10;;;;;;4169824;28;20576;-41
2024/03/22 01:43:29;;;;;;;30.45;20.92;;;16.00;82.40;;;;;;4170647;28;20071;-39
2024/03/22 01:46:09;;;;;;;29.83;20.67;;;16.00;82.40;;;;;;4170345;28;20056;-41
2024/03/22 01:48:48;;;;;;;34.03;20.55;;;16.00;82.50;;;;;;4140221;28;20413;-41
2024/03/22 01:51:28;;;;;;;30.63;20.45;;;16.00;82.60;;;;;;4153682;28;20092;-41
2024/03/22 01:54:10;;;;;;;29.92;20.38;;;16.00;82.50;;;;;;4153249;28;20095;-41
2024/03/22 01:56:50;;;;;;;;;;;16.00;82.70;;;;;;4163436;28;20111;-39
2024/03/22 01:59:30;;;;;;;31.80;21.33;;;16.00;82.80;;;;;;4166542;28;20031;-41
2024/03/22 02:02:11;;;;;;;34.45;21.08;;;16.00;83.10;;;;;;4159276;28;20079;-40
2024/03/22 02:04:51;;;;;;;31.42;20.42;;;16.00;83.20;;;;;;4157540;28;20083;-41
2024/03/22 02:07:31;;;;;;;31.67;21.60;;;15.90;83.20;;;;;;4158378;28;20115;-42
2024/03/22 02:10:12;;;;;;;36.95;22.35;;;15.90;83.00;;;;;;4142614;28;20554;-41
2024/03/22 02:12:52;;;;;;;30.95;20.45;;;16.00;83.40;;;;;;4170327;28;20059;-41
2024/03/22 02:15:31;;;;;;;39.38;24.27;;;15.90;82.40;;;;;;4158118;28;20055;-41
2024/03/22 02:18:13;;;;;;;32.60;21.90;;;15.90;82.40;;;;;;4144988;28;20131;-41
2024/03/22 02:20:52;;;;;;;38.65;22.38;;;15.90;82.50;;;;;;4153484;28;20809;-41
2024/03/22 02:23:35;;;;;;;35.97;22.60;;;15.90;82.60;;;;;;4153677;28;20412;-41
2024/03/22 02:26:14;;;;;;;34.85;22.15;;;15.90;82.80;;;;;;4142102;28;20053;-41
2024/03/22 02:28:54;;;;;;;36.05;22.73;;;15.90;83.00;;;;;;4166429;28;20106;-42
2024/03/22 02:31:33;;;;;;;33.47;22.40;;;15.90;83.10;;;;;;4153954;28;20052;-41
2024/03/22 02:34:13;;;;;;;35.75;23.40;;;15.90;83.30;;;;;;4154846;28;20052;-39
2024/03/22 02:36:52;;;;;;;34.40;23.10;;;15.90;83.30;;;;;;4130698;28;20048;-41
2024/03/22 02:39:33;;;;;;;38.20;25.30;;;15.90;83.30;;;;;;4154281;28;20132;-40
2024/03/22 02:42:12;;;;;;;;;;;15.90;83.40;;;;;;4152808;28;20053;-39
2024/03/22 02:44:52;;;;;;;38.63;23.48;;;15.90;83.30;;;;;;4166137;28;19967;-42
2024/03/22 02:47:31;;;;;;;38.08;24.73;;;15.90;83.60;;;;;;4158009;28;20507;-41
2024/03/22 02:50:11;;;;;;;38.42;24.55;;;15.90;83.30;;;;;;4157435;28;20458;-39
2024/03/22 02:52:51;;;;;;;39.15;25.40;;;15.90;83.10;;;;;;4157904;28;20106;-41
2024/03/22 02:55:38;;;;;;;40.20;24.80;;;15.90;83.40;;;;;;4155767;28;20055;-41
2024/03/22 02:58:20;;;;;;;35.75;23.85;;;15.90;83.30;;;;;;4169025;28;20102;-41
2024/03/22 03:01:00;;;;;;;38.78;24.13;;;15.90;83.30;;;;;;4168960;28;20052;-46
2024/03/22 03:03:39;;;;;;;41.20;25.30;;;15.90;83.30;;;;;;4164461;28;20048;-46
2024/03/22 03:06:19;;;;;;;38.90;24.45;;;15.90;83.40;;;;;;4153619;28;20117;-46
2024/03/22 03:08:58;;;;;;;40.92;23.58;;;15.90;83.60;;;;;;4137029;28;20184;-44
2024/03/22 03:11:40;;;;;;;41.10;25.45;;;15.90;83.60;;;;;;4136399;28;20068;-43
2024/03/22 03:14:19;;;;;;;37.15;23.60;;;15.90;83.60;;;;;;4135539;28;20084;-43
2024/03/22 03:16:59;;;;;;;36.40;23.55;;;15.80;83.40;;;;;;4150836;28;20508;-43
2024/03/22 03:19:38;;;;;;;39.92;25.67;;;15.90;84.40;;;;;;4152452;28;20075;-43
2024/03/22 03:22:18;;;;;;;38.58;25.67;;;15.90;83.60;;;;;;4152203;28;20103;-44
2024/03/22 03:24:57;;;;;;;42.88;26.08;;;15.90;83.60;;;;;;4154505;28;20141;-43
2024/03/22 03:27:38;;;;;;;42.20;25.40;;;15.80;83.50;;;;;;4154045;28;20123;-43
2024/03/22 03:30:17;;;;;;;;;;;15.80;83.60;;;;;;4151216;28;20056;-43
2024/03/22 03:32:57;;;;;;;41.85;24.20;;;15.80;83.50;;;;;;4162622;28;19927;-43
2024/03/22 03:35:36;;;;;;;41.53;24.52;;;15.90;83.90;;;;;;4135570;28;20053;-43
2024/03/22 03:38:16;;;;;;;40.40;23.88;;;15.80;83.70;;;;;;4156475;28;20052;-43
2024/03/22 03:40:56;;;;;;;40.75;25.10;;;15.80;83.60;;;;;;4156008;28;20186;-43
2024/03/22 03:43:37;;;;;;;41.42;25.13;;;15.80;83.60;;;;;;4162837;28;20056;-43
2024/03/22 03:46:16;;;;;;;42.95;25.50;;;15.80;83.80;;;;;;4152235;28;20112;-43
2024/03/22 03:48:56;;;;;;;43.22;26.05;;;15.80;83.90;;;;;;4160501;28;20060;-45
2024/03/22 03:51:34;;;;;;;46.97;26.77;;;15.80;84.00;;;;;;4156196;28;20136;-43
2024/03/22 03:54:14;;;;;;;43.85;26.50;;;15.80;84.10;;;;;;4148954;28;20048;-40
2024/03/22 03:56:53;;;;;;;42.40;25.50;;;15.80;84.20;;;;;;4153145;28;20060;-40
2024/03/22 03:59:35;;;;;;;43.72;26.77;;;15.80;84.20;;;;;;4154284;28;20060;-48
2024/03/22 04:02:14;;;;;;;40.70;24.48;;;15.80;84.20;;;;;;4155158;28;20051;-40
2024/03/22 04:04:54;;;;;;;44.40;26.33;;;15.80;84.30;;;;;;4155173;28;20801;-40
2024/03/22 04:07:33;;;;;;;40.10;23.80;;;15.80;84.30;;;;;;4144214;28;20067;-40
2024/03/22 04:10:13;;;;;;;45.28;27.02;;;15.80;84.50;;;;;;4155414;28;20658;-40
2024/03/22 04:12:52;;;;;;;42.90;25.52;;;15.80;84.50;;;;;;4156513;28;20115;-41
2024/03/22 04:15:36;;;;;;;45.03;25.65;;;15.80;84.50;;;;;;4158099;28;20056;-40
2024/03/22 04:18:15;;;;;;;44.35;25.20;;;15.80;84.50;;;;;;4158710;28;20055;-41
2024/03/22 04:20:56;;;;;;;43.97;25.60;;;15.80;84.50;;;;;;4155768;28;20058;-43
2024/03/22 04:23:35;;;;;;;46.77;25.37;;;15.80;84.60;;;;;;4160521;28;20071;-41
2024/03/22 04:26:16;;;;;;;49.45;27.05;;;15.80;84.60;;;;;;4170890;28;20051;-43
2024/03/22 04:28:55;;;;;;;45.70;25.65;;;15.80;84.70;;;;;;4154780;28;20060;-43
2024/03/22 04:31:36;;;;;;;44.60;24.08;;;15.80;84.70;;;;;;4153530;28;20056;-43
2024/03/22 04:34:15;;;;;;;44.03;24.58;;;15.80;84.80;;;;;;4154133;28;20703;-43
2024/03/22 04:36:55;;;;;;;41.45;23.50;;;15.80;84.80;;;;;;4154945;28;20391;-43
2024/03/22 04:39:35;;;;;;;44.03;25.33;;;15.80;84.80;;;;;;4154570;28;20103;-42
2024/03/22 04:42:15;;;;;;;39.72;21.58;;;15.80;84.70;;;;;;4154952;28;20546;-44
2024/03/22 04:44:54;;;;;;;46.33;25.00;;;15.80;84.70;;;;;;4156487;28;20057;-43
2024/03/22 04:47:37;;;;;;;43.50;23.45;;;15.70;84.60;;;;;;4143208;28;20059;-44
2024/03/22 04:50:16;;;;;;;46.13;26.60;;;15.70;84.70;;;;;;4154010;28;20412;-43
2024/03/22 04:52:56;;;;;;;46.70;24.10;;;15.70;85.60;;;;;;4168184;28;20107;-43
2024/03/22 04:55:36;;;;;;;42.00;23.95;;;15.70;84.70;;;;;;4142806;28;20484;-43
2024/03/22 04:58:16;;;;;;;44.47;24.70;;;15.70;84.70;;;;;;4154626;28;20052;-43
2024/03/22 05:00:57;;;;;;;42.43;23.80;;;15.70;84.70;;;;;;4149647;28;20055;-43
2024/03/22 05:03:40;;;;;;;40.60;23.80;;;15.70;84.70;;;;;;4153900;28;20303;-45
2024/03/22 05:06:20;;;;;;;39.95;22.30;;;15.70;85.10;;;;;;4142931;28;20353;-45
2024/03/22 05:09:00;;;;;;;41.38;22.52;;;15.70;84.90;;;;;;4154419;28;20127;-44
2024/03/22 05:11:39;;;;;;;41.90;23.98;;;15.70;84.90;;;;;;4152992;28;20111;-44
2024/03/22 05:14:20;;;;;;;40.50;22.42;;;15.70;84.90;;;;;;4141161;28;20115;-43
2024/03/22 05:16:59;;;;;;;;;;;15.70;85.00;;;;;;4170878;28;20059;-43
2024/03/22 05:19:40;;;;;;;42.80;22.13;;;15.70;84.90;;;;;;4170316;28;19983;-40
2024/03/22 05:22:20;;;;;;;42.92;22.17;;;15.70;85.10;;;;;;4159403;28;20499;-40
2024/03/22 05:25:00;;;;;;;40.78;22.88;;;15.70;85.20;;;;;;4169957;28;20348;-40
2024/03/22 05:27:39;;;;;;;40.35;21.23;;;15.70;85.10;;;;;;4169898;28;20138;-40
2024/03/22 05:30:18;;;;;;;39.85;23.45;;;15.70;85.10;;;;;;4157797;28;20098;-40
2024/03/22 05:32:58;;;;;;;34.97;21.77;;;15.70;85.00;;;;;;4160018;28;20191;-40
2024/03/22 05:35:39;;;;;;;36.75;20.75;;;15.70;85.00;;;;;;4159236;28;20098;-45
2024/03/22 05:38:18;;;;;;;35.67;21.95;;;15.70;85.30;;;;;;4167821;28;20079;-44
2024/03/22 05:40:58;;;;;;;38.40;21.52;;;15.70;85.50;;;;;;4168628;28;20060;-44
2024/03/22 05:43:38;;;;;;;35.67;20.67;;;15.80;85.40;;;;;;4169197;28;20404;-45
2024/03/22 05:46:17;;;;;;;35.97;20.73;;;15.90;86.30;;;;;;4163689;28;20506;-43
2024/03/22 05:48:58;;;;;;;37.72;21.15;;;15.90;85.20;;;;;;4170261;28;20059;-43
2024/03/22 05:51:39;;;;;;;34.92;20.15;;;16.00;84.90;;;;;;4158108;28;20079;-45
2024/03/22 05:54:18;;;;;;;;;;;16.00;84.80;;;;;;4142172;28;20108;-40
2024/03/22 05:57:00;;;;;;;36.30;20.25;;;16.10;84.60;;;;;;4153533;28;20063;-40
2024/03/22 05:59:39;;;;;;;29.05;18.38;;;16.10;84.60;;;;;;4158344;28;20065;-40
2024/03/22 06:02:19;;;;;;;32.92;18.45;;;16.10;84.50;;;;;;4168056;28;20048;-40
2024/03/22 06:04:58;;;;;;;30.70;19.08;;;16.10;84.40;;;;;;4169607;28;20106;-40
2024/03/22 06:07:43;;;;;;;34.13;19.40;;;16.10;84.30;;;;;;4164310;28;20110;-40
2024/03/22 06:10:22;;;;;;;31.05;18.40;;;16.10;84.30;;;;;;4169418;28;20171;-40
2024/03/22 06:13:03;;;;;;;33.28;18.15;;;16.00;84.30;;;;;;4151801;28;20060;-41
2024/03/22 06:15:45;;;;;;;32.80;17.02;;;16.10;84.60;;;;;;4165529;28;20059;-40
2024/03/22 06:18:25;;;;;;;29.45;16.95;;;16.00;84.80;;;;;;4147128;28;20043;-40
2024/03/22 06:21:04;;;;;;;25.10;16.92;;;16.10;84.90;;;;;;4167634;28;20380;-40
2024/03/22 06:23:46;;;;;;;24.10;15.27;;;16.10;84.80;;;;;;4164986;28;20516;-40
2024/03/22 06:26:25;;;;;;;;;;;16.10;84.60;;;;;;4152830;28;20408;-40
2024/03/22 06:29:05;;;;;;;23.33;14.65;;;16.10;84.60;;;;;;4167936;28;19990;-41
2024/03/22 06:31:45;;;;;;;24.17;14.68;;;16.20;84.50;;;;;;4169210;28;20125;-43
2024/03/22 06:34:24;;;;;;;21.55;13.57;;;16.20;84.40;;;;;;4146315;28;20132;-43
2024/03/22 06:37:04;;;;;;;18.67;12.82;;;16.20;85.30;;;;;;4163784;28;20056;-41
2024/03/22 06:39:45;;;;;;;22.40;13.93;;;16.20;84.30;;;;;;4167544;28;20395;-43
2024/03/22 06:42:25;;;;;;;;;;;16.20;84.50;;;;;;4168408;28;20168;-41
2024/03/22 06:45:06;;;;;;;24.05;13.15;;;16.10;84.50;;;;;;4169377;28;19931;-43
2024/03/22 06:47:45;;;;;;;22.52;13.10;;;16.10;84.50;;;;;;4157782;28;20075;-44
2024/03/22 06:50:25;;;;;;;22.35;14.00;;;16.10;84.80;;;;;;4168991;28;20387;-44
2024/03/22 06:53:07;;;;;;;20.85;14.70;;;16.10;84.70;;;;;;4167851;28;20056;-43
2024/03/22 06:55:48;;;;;;;22.60;13.55;;;16.00;84.60;;;;;;4169179;28;20132;-43
2024/03/22 06:58:28;;;;;;;23.45;12.20;;;16.00;84.50;;;;;;4169481;28;20060;-43
2024/03/22 07:01:08;;;;;;;23.20;14.27;;;16.10;85.70;;;;;;4168594;28;20048;-42
2024/03/22 07:03:48;;;;;;;18.85;13.43;;;16.10;84.70;;;;;;4168691;28;20143;-43
2024/03/22 07:06:27;;;;;;;18.67;13.23;;;16.10;84.40;;;;;;4169223;28;20055;-43
2024/03/22 07:09:07;;;;;;;20.10;12.75;;;16.10;84.30;;;;;;4152477;28;20115;-40
2024/03/22 07:11:49;;;;;;;19.88;12.00;;;16.20;84.10;;;;;;4152294;28;20056;-39
2024/03/22 07:14:28;;;;;;;18.83;12.75;;;16.10;83.80;;;;;;4131917;28;20043;-40
2024/03/22 07:17:08;;;;;;;21.83;11.27;;;16.10;84.50;;;;;;4150533;28;20056;-40
2024/03/22 07:19:47;;;;;;;16.07;10.00;;;16.20;83.40;;;;;;4153142;28;20508;-40
2024/03/22 07:22:27;;;;;;;23.88;11.48;;;16.20;83.20;;;;;;4165489;28;20428;-40
2024/03/22 07:25:09;;;;;;;17.88;10.77;;;16.20;82.90;;;;;;4169150;28;20075;-40
2024/03/22 07:27:50;;;;;;;20.13;11.32;;;16.20;82.70;;;;;;4157189;28;20110;-40
2024/03/22 07:30:30;;;;;;;17.52;10.50;;;16.20;82.60;;;;;;4168685;28;20158;-40
2024/03/22 07:33:13;;;;;;;28.63;10.75;;;16.20;82.60;;;;;;4159176;28;20125;-39
2024/03/22 07:35:54;;;;;;;17.58;9.98;;;16.20;82.30;;;;;;4165631;28;20462;-40
2024/03/22 07:38:33;;;;;;;17.17;9.52;;;16.30;82.00;;;;;;4157195;28;20142;-40
2024/03/22 07:41:14;;;;;;;14.82;9.77;;;16.30;81.70;;;;;;4165514;28;20043;-39
2024/03/22 07:43:54;;;;;;;18.50;9.70;;;16.30;82.50;;;;;;4148629;28;20055;-40
2024/03/22 07:46:35;;;;;;;16.13;9.27;;;16.30;81.40;;;;;;4168274;28;20099;-40
2024/03/22 07:49:14;;;;;;;17.23;10.50;;;16.30;81.40;;;;;;4154998;28;20049;-43
2024/03/22 07:51:54;;;;;;;16.30;9.88;;;16.30;81.40;;;;;;4152285;28;20056;-51
2024/03/22 07:54:33;;;;;;;16.52;8.90;;;16.30;81.50;;;;;;4137358;28;20049;-41
2024/03/22 07:57:13;;;;;;;16.83;8.68;;;16.20;81.50;;;;;;4142783;28;20130;-40
2024/03/22 07:59:53;;;;;;;11.40;7.88;;;16.20;81.70;;;;;;4155466;28;20061;-40
2024/03/22 08:02:34;;;;;;;12.20;8.30;;;16.10;81.80;;;;;;4147335;28;20369;-39
2024/03/22 08:05:13;;;;;;;13.30;8.40;;;16.10;81.90;;;;;;4150922;28;20558;-40
2024/03/22 08:07:53;;;;;;;12.05;7.43;;;16.10;82.00;;;;;;4160972;28;20495;-41
2024/03/22 08:10:32;;;;;;;11.65;7.78;;;16.10;82.10;;;;;;4152087;28;20067;-40
2024/03/22 08:13:12;;;;;;;14.75;8.63;;;16.10;82.20;;;;;;4167000;28;20492;-40
2024/03/22 08:15:53;;;;;;;12.68;7.28;;;16.00;82.30;;;;;;4168587;28;20072;-40
2024/03/22 08:18:33;;;;;;;12.57;8.10;;;16.00;82.40;;;;;;4164754;28;20511;-40
2024/03/22 08:21:13;;;;;;;10.88;6.97;;;16.00;82.60;;;;;;4149515;28;20531;-41
2024/03/22 08:23:53;;;;;;;9.70;7.13;;;16.00;82.70;;;;;;4168457;28;20099;-40
2024/03/22 08:26:32;;;;;;;10.00;6.40;;;16.00;82.70;;;;;;4158606;28;20071;-40
2024/03/22 08:29:12;;;;;;;10.48;6.63;;;15.90;82.70;;;;;;4142091;28;20188;-40
2024/03/22 08:31:53;;;;;;;9.52;6.65;;;15.90;82.90;;;;;;4152683;28;20076;-40
2024/03/22 08:34:33;;;;;;;11.13;6.57;;;15.80;83.00;;;;;;4165417;28;20106;-40
2024/03/22 08:37:12;;;;;;;12.02;7.53;;;15.90;83.20;;;;;;4169060;28;20051;-40
2024/03/22 08:39:52;;;;;;;11.45;7.57;;;15.90;83.40;;;;;;4162955;28;20060;-40
2024/03/22 08:42:32;;;;;;;10.00;7.57;;;15.80;83.40;;;;;;4154854;28;20072;-40
2024/03/22 08:45:12;;;;;;;11.88;7.10;;;15.80;83.40;;;;;;4153081;28;20512;-40
2024/03/22 08:47:53;;;;;;;8.75;7.03;;;15.80;83.40;;;;;;4167323;28;20145;-40
2024/03/22 08:50:33;;;;;;;9.88;6.80;;;15.80;83.50;;;;;;4171066;28;20051;-40
2024/03/22 08:53:12;;;;;;;8.32;6.07;;;15.80;83.60;;;;;;4158616;28;20140;-40
2024/03/22 08:55:52;;;;;;;10.48;6.15;;;15.80;83.70;;;;;;4169211;28;20472;-40
2024/03/22 08:58:31;;;;;;;9.50;5.80;;;15.80;83.90;;;;;;4151444;28;20388;-40
2024/03/22 09:01:10;;;;;;;8.65;5.93;;;15.70;84.00;;;;;;4154352;28;20053;-40
2024/03/22 09:03:51;;;;;;;7.47;5.97;;;15.70;83.90;;;;;;4161770;28;20365;-40
2024/03/22 09:06:31;;;;;;;6.70;5.90;;;15.70;84.00;;;;;;4156198;28;20259;-40
2024/03/22 09:09:11;;;;;;;7.72;5.72;;;15.70;84.10;;;;;;4141192;28;20052;-40
2024/03/22 09:11:51;;;;;;;7.35;5.10;;;15.70;84.30;;;;;;4167128;28;20064;-40
2024/03/22 09:14:30;;;;;;;7.75;5.50;;;15.70;84.50;;;;;;4170628;28;20052;-40
2024/03/22 09:17:10;;;;;;;5.60;5.00;;;15.70;85.50;;;;;;4147012;28;20100;-40
2024/03/22 09:19:50;;;;;;;6.35;4.82;;;15.60;84.70;;;;;;4154279;28;20560;-40
2024/03/22 09:22:32;;;;;;;7.50;4.57;;;15.60;84.80;;;;;;4155617;28;20566;-40
2024/03/22 09:25:11;;;;;;;4.32;3.97;;;15.60;84.80;;;;;;4160848;28;20094;-40
2024/03/22 09:27:51;;;;;;;4.35;3.63;;;15.60;84.80;;;;;;4163000;28;20388;-44
2024/03/22 09:30:30;;;;;;;7.00;3.92;;;15.60;84.90;;;;;;4151254;28;20076;-44
2024/03/22 09:33:10;;;;;;;4.22;3.80;;;15.60;85.00;;;;;;4155654;28;20090;-47
2024/03/22 09:35:51;;;;;;;4.10;3.80;;;15.60;85.30;;;;;;4137582;28;20434;-45
2024/03/22 09:38:32;;;;;;;6.20;4.07;;;15.60;85.40;;;;;;4144352;28;20129;-40
2024/03/22 09:41:13;;;;;;;3.93;3.57;;;15.60;85.40;;;;;;4154120;28;20099;-44
2024/03/22 09:43:54;;;;;;;3.57;3.27;;;15.60;85.40;;;;;;4165770;28;20623;-44
2024/03/22 09:46:34;;;;;;;3.67;3.38;;;15.60;85.40;;;;;;4165786;28;20422;-44
2024/03/22 09:49:14;;;;;;;4.75;3.35;;;15.60;85.40;;;;;;4159032;28;20535;-45
2024/03/22 09:51:56;;;;;;;4.57;3.00;;;15.60;85.60;;;;;;4158573;28;20495;-44
2024/03/22 09:54:35;;;;;;;;;;;15.50;85.60;;;;;;4157772;28;20135;-43
2024/03/22 09:57:16;;;;;;;9.77;3.05;;;15.50;86.40;;;;;;4164902;28;20331;-43
2024/03/22 09:59:56;;;;;;;4.90;2.75;;;15.50;85.80;;;;;;4168929;28;20141;-44
2024/03/22 10:02:37;;;;;;;3.80;3.40;;;15.50;85.90;;;;;;4170299;28;20069;-45
2024/03/22 10:05:17;;;;;;;3.13;2.90;;;15.50;85.90;;;;;;4168646;28;20057;-44
2024/03/22 10:08:00;;;;;;;4.80;3.13;;;15.50;86.10;;;;;;4169551;28;20111;-41
2024/03/22 10:10:39;;;;;;;;;;;15.50;86.10;;;;;;4154064;28;20048;-43
2024/03/22 10:13:19;;;;;;;3.20;2.60;;;15.50;86.00;;;;;;4140637;28;20341;-40
2024/03/22 10:15:58;;;;;;;3.63;3.28;;;15.50;86.00;;;;;;4139696;28;20052;-41
2024/03/22 10:18:38;;;;;;;3.75;2.83;;;15.50;86.30;;;;;;4153811;28;20111;-40
2024/03/22 10:21:18;;;;;;;2.53;2.33;;;15.50;86.90;;;;;;4167978;28;20964;-40
2024/03/22 10:24:00;;;;;;;2.60;2.40;;;15.50;87.50;;;;;;4156848;28;20095;-40
2024/03/22 10:26:39;;;;;;;2.90;2.70;;;15.50;87.40;;;;;;4168375;28;20175;-40
2024/03/22 10:29:22;;;;;;;2.05;1.95;;;15.50;87.20;;;;;;4168596;28;20206;-39
2024/03/22 10:32:01;;;;;;;2.78;2.58;;;15.50;88.10;;;;;;4165479;28;20507;-40
2024/03/22 10:34:42;;;;;;;2.50;2.30;;;15.50;87.20;;;;;;4168162;28;20083;-40
2024/03/22 10:37:23;;;;;;;3.72;2.33;;;15.50;87.30;;;;;;4161322;28;20063;-40
2024/03/22 10:40:07;;;;;;;2.45;2.25;;;15.50;87.40;;;;;;4155982;28;20053;-43
2024/03/22 10:42:46;;;;;;;2.08;1.90;;;15.50;87.40;;;;;;4152276;28;20132;-40
2024/03/22 10:45:27;;;;;;;1.88;1.63;;;15.50;87.40;;;;;;4154931;28;20102;-40
2024/03/22 10:48:09;;;;;;;2.03;1.83;;;15.50;87.40;;;;;;4158568;28;20075;-40
2024/03/22 10:50:51;;;;;;;1.88;1.77;;;15.50;87.50;;;;;;4152203;28;20520;-40
2024/03/22 10:53:32;;;;;;;2.25;1.73;;;15.50;87.50;;;;;;4166563;28;20083;-40
2024/03/22 10:56:17;;;;;;;1.98;1.75;;;15.50;87.50;;;;;;4151603;28;20152;-44
2024/03/22 10:58:56;;;;;;;1.65;1.55;;;15.50;87.50;;;;;;4152441;28;20056;-44
2024/03/22 11:01:37;;;;;;;1.80;1.70;;;15.50;87.50;;;;;;4151196;28;20091;-44
2024/03/22 11:04:18;;;;;;;1.75;1.65;;;15.50;87.50;;;;;;4149382;28;20507;-40
2024/03/22 11:06:58;;;;;;;2.00;1.73;;;15.50;88.40;;;;;;4149442;28;20052;-44
2024/03/22 11:09:37;;;;;;;1.10;0.98;;;15.50;87.50;;;;;;4160002;28;20106;-40
2024/03/22 11:12:21;;;;;;;1.35;1.25;;;15.50;87.50;;;;;;4166517;28;20186;-40
2024/03/22 11:15:00;;;;;;;1.45;1.38;;;15.50;87.60;;;;;;4152020;28;20841;-40
2024/03/22 11:17:41;;;;;;;1.20;1.20;;;15.50;87.50;;;;;;4154484;28;20102;-40
2024/03/22 11:20:20;;;;;;;2.97;1.42;;;15.60;87.70;;;;;;4144927;28;20104;-40
2024/03/22 11:23:00;;;;;;;1.10;1.00;;;15.50;87.60;;;;;;4152707;28;20286;-40
2024/03/22 11:25:39;;;;;;;0.77;0.77;;;15.50;87.60;;;;;;4157478;28;20523;-41
2024/03/22 11:28:20;;;;;;;1.10;1.10;;;15.50;87.70;;;;;;4139868;28;20060;-42
2024/03/22 11:31:00;;;;;;;1.45;1.35;;;15.60;87.70;;;;;;4159826;28;20070;-40
2024/03/22 11:33:41;;;;;;;2.13;0.93;;;15.50;87.70;;;;;;4165724;28;20052;-40
2024/03/22 11:36:20;;;;;;;1.67;0.90;;;15.60;87.80;;;;;;4163678;28;20065;-40
2024/03/22 11:39:00;;;;;;;1.50;1.40;;;15.60;87.70;;;;;;4134447;28;20052;-40
2024/03/22 11:41:39;;;;;;;1.13;1.10;;;15.60;87.70;;;;;;4142199;28;20056;-43
2024/03/22 11:44:25;;;;;;;1.00;1.00;;;15.60;87.80;;;;;;4164050;28;20051;-41
2024/03/22 11:47:04;;;;;;;1.13;1.10;;;15.60;87.70;;;;;;4142955;28;20107;-40
2024/03/22 11:49:45;;;;;;;2.28;1.10;;;15.60;87.70;;;;;;4159141;28;20122;-40
2024/03/22 11:52:25;;;;;;;2.15;1.40;;;15.60;87.70;;;;;;4139081;28;20084;-42
2024/03/22 11:55:06;;;;;;;1.67;1.02;;;15.60;87.70;;;;;;4140717;28;20056;-40
2024/03/22 11:57:48;;;;;;;1.60;0.98;;;15.60;87.70;;;;;;4152327;28;20129;-39
2024/03/22 12:00:30;;;;;;;1.20;1.17;;;15.60;87.70;;;;;;4151560;28;20158;-40
2024/03/22 12:03:09;;;;;;;;;;;15.60;87.70;;;;;;4147630;28;20502;-39
2024/03/22 12:05:51;;;;;;;0.90;0.90;;;15.60;87.60;;;;;;4151224;28;19928;-40
2024/03/22 12:08:31;;;;;;;1.15;0.90;;;15.50;87.60;;;;;;4151447;28;20056;-44
2024/03/22 12:11:11;;;;;;;1.63;1.52;;;15.50;87.60;;;;;;4145373;28;20519;-44
2024/03/22 12:13:50;;;;;;;1.35;1.25;;;15.50;87.80;;;;;;4158305;28;20103;-40
2024/03/22 12:16:32;;;;;;;0.88;0.88;;;15.50;87.70;;;;;;4147810;28;20114;-44
2024/03/22 12:19:11;;;;;;;1.33;1.10;;;15.50;87.70;;;;;;4171994;28;20518;-40
2024/03/22 12:21:51;;;;;;;2.00;0.88;;;15.60;87.80;;;;;;4156585;28;20052;-41
2024/03/22 12:24:32;;;;;;;0.90;0.90;;;15.50;87.70;;;;;;4154003;28;20107;-43
2024/03/22 12:27:13;;;;;;;2.10;1.23;;;15.50;87.70;;;;;;4167657;28;20298;-44
2024/03/22 12:29:52;;;;;;;1.02;0.95;;;15.50;87.80;;;;;;4155544;28;20067;-40
2024/03/22 12:32:33;;;;;;;5.40;1.80;;;15.60;88.00;;;;;;4154860;28;20052;-40
2024/03/22 12:35:12;;;;;;;;;;;15.50;87.80;;;;;;4159521;28;20076;-43
2024/03/22 12:37:52;;;;;;;2.38;1.45;;;15.60;87.70;;;;;;4153892;28;19992;-43
2024/03/22 12:40:32;;;;;;;3.40;1.52;;;15.50;87.70;;;;;;4166674;28;20047;-43
2024/03/22 12:43:13;;;;;;;7.20;2.28;;;15.50;87.70;;;;;;4167545;28;20079;-44
2024/03/22 12:45:52;;;;;;;4.13;1.77;;;15.50;87.50;;;;;;4170953;28;20118;-43
2024/03/22 12:48:33;;;;;;;2.85;1.90;;;15.50;87.60;;;;;;4155754;28;20107;-43
2024/03/22 12:51:13;;;;;;;1.75;1.23;;;15.50;87.70;;;;;;4153986;28;20060;-40
2024/03/22 12:53:53;;;;;;;2.85;1.73;;;15.50;87.70;;;;;;4140035;28;20089;-44
2024/03/22 12:56:32;;;;;;;1.30;1.20;;;15.50;87.70;;;;;;4169273;28;20055;-40
2024/03/22 12:59:12;;;;;;;1.92;1.40;;;15.50;87.70;;;;;;4150294;28;20084;-42
2024/03/22 13:01:53;;;;;;;2.30;1.70;;;15.50;87.70;;;;;;4151140;28;20501;-44
2024/03/22 13:04:35;;;;;;;3.53;1.97;;;15.50;87.70;;;;;;4152263;28;20759;-44
2024/03/22 13:07:14;;;;;;;3.30;1.85;;;15.50;88.00;;;;;;4170949;28;20106;-40
2024/03/22 13:09:54;;;;;;;3.38;2.10;;;15.50;88.10;;;;;;4162315;28;20106;-40
2024/03/22 13:12:34;;;;;;;4.05;2.35;;;15.50;88.00;;;;;;4169106;28;20075;-40
2024/03/22 13:15:14;;;;;;;4.45;2.30;;;15.50;88.10;;;;;;4160124;28;20599;-44
2024/03/22 13:17:56;;;;;;;3.45;2.13;;;15.50;88.10;;;;;;4158921;28;20087;-41
2024/03/22 13:20:37;;;;;;;8.35;2.35;;;15.50;88.20;;;;;;4166707;28;20408;-40
2024/03/22 13:23:16;;;;;;;;;;;15.50;88.50;;;;;;4155244;28;20167;-41
2024/03/22 13:25:58;;;;;;;6.88;2.25;;;15.50;88.70;;;;;;4167587;28;19931;-40
2024/03/22 13:28:37;;;;;;;7.97;2.63;;;15.50;88.90;;;;;;4169485;28;20056;-40
2024/03/22 13:31:17;;;;;;;4.05;2.20;;;15.60;88.60;;;;;;4168040;28;20095;-41
2024/03/22 13:33:57;;;;;;;7.95;2.25;;;15.60;88.40;;;;;;4168440;28;20098;-46
2024/03/22 13:36:38;;;;;;;7.25;2.78;;;15.60;88.40;;;;;;4163655;28;20075;-45
2024/03/22 13:39:17;;;;;;;7.30;2.55;;;15.60;88.20;;;;;;4157658;28;20051;-44
2024/03/22 13:41:58;;;;;;;8.68;2.80;;;15.60;88.20;;;;;;4168247;28;20047;-45
2024/03/22 13:44:37;;;;;;;7.75;2.83;;;15.60;88.10;;;;;;4145815;28;20095;-45